Time;durP1;ratioP1;P1;durP2;ratioP2;P2;SDS_P1;SDS_P2;PMS_P1;PMS_P2;Temp;Humidity;BMP_temperature;BMP_pressure;BME280_temperature;BME280_humidity;BME280_pressure;Samples;Min_cycle;Max_cycle;Signal;HPM_P1;HPM_P2
2023/06/03 00:00:09;;;;;;;7.57;3.92;;;;;;;19.25;85.42;100818.97;5011076;28;20038;-88
2023/06/03 00:02:34;;;;;;;13.68;4.47;;;;;;;19.26;86.27;100826.72;4994722;28;20030;-87
2023/06/03 00:05:01;;;;;;;6.93;4.07;;;;;;;19.18;87.36;100824.75;4994199;28;20430;-88
2023/06/03 00:07:27;;;;;;;6.43;4.20;;;;;;;19.06;87.26;100811.78;4994070;28;20029;-87
2023/06/03 00:09:52;;;;;;;7.22;3.83;;;;;;;19.09;87.66;100832.53;5010622;28;20026;-88
2023/06/03 00:12:17;;;;;;;6.32;4.13;;;;;;;19.01;89.09;100834.94;4978014;28;20411;-88
2023/06/03 00:14:43;;;;;;;5.80;4.03;;;;;;;19.06;88.73;100838.84;4994120;28;20487;-89
2023/06/03 00:17:11;;;;;;;6.32;4.15;;;;;;;18.96;88.68;100837.91;4993962;28;20038;-88
2023/06/03 00:19:37;;;;;;;6.85;4.13;;;;;;;18.88;88.66;100835.09;4994278;28;20022;-88
2023/06/03 00:22:03;;;;;;;8.57;4.68;;;;;;;18.84;89.25;100841.53;4993860;28;20038;-88
2023/06/03 00:24:28;;;;;;;5.38;4.13;;;;;;;18.79;90.66;100843.69;4994116;28;20072;-87
2023/06/03 00:26:54;;;;;;;6.47;4.22;;;;;;;18.67;90.66;100834.16;4977774;28;20044;-88
2023/06/03 00:29:19;;;;;;;7.03;3.92;;;;;;;18.67;90.75;100842.03;5009943;28;20034;-87
2023/06/03 00:31:45;;;;;;;5.88;4.40;;;;;;;18.67;91.39;100852.50;5010041;28;20034;-89
2023/06/03 00:34:11;;;;;;;6.55;3.70;;;;;;;18.66;91.77;100848.22;4993578;28;20041;-88
2023/06/03 00:36:36;;;;;;;5.85;4.20;;;;;;;18.66;92.99;100848.22;5009874;28;20033;-87
2023/06/03 00:39:02;;;;;;;11.20;4.72;;;;;;;18.78;93.08;100868.22;5011299;28;20038;-87
2023/06/03 00:41:27;;;;;;;14.98;5.07;;;;;;;18.61;93.14;100852.03;4993542;28;20581;-87
2023/06/03 00:43:53;;;;;;;8.93;3.97;;;;;;;18.73;94.28;100876.47;5010301;28;20034;-88
2023/06/03 00:46:19;;;;;;;5.07;3.78;;;;;;;18.72;92.79;100873.97;4993775;28;20038;-88
2023/06/03 00:48:44;;;;;;;7.68;4.20;;;;;;;18.76;92.34;100883.25;4993818;28;20533;-89
2023/06/03 00:51:10;;;;;;;4.53;3.42;;;;;;;18.73;91.82;100884.31;5009508;28;20038;-87
2023/06/03 00:53:35;;;;;;;7.10;4.38;;;;;;;18.77;91.38;100895.38;4993526;28;20030;-87
2023/06/03 00:56:01;;;;;;;4.93;3.63;;;;;;;18.62;91.78;100879.06;5010024;28;20458;-87
2023/06/03 00:58:26;;;;;;;6.50;3.08;;;;;;;18.86;92.12;100899.91;5009634;28;20096;-87
2023/06/03 01:00:52;;;;;;;7.50;4.20;;;;;;;18.74;90.79;100888.59;4993664;28;20061;-88
2023/06/03 01:03:19;;;;;;;6.28;3.50;;;;;;;18.78;92.24;100883.94;5010629;28;20033;-88
2023/06/03 01:05:45;;;;;;;5.82;4.40;;;;;;;18.86;92.23;100887.63;4993392;28;20040;-89
2023/06/03 01:08:31;;;;;;;6.70;4.53;;;;;;;18.76;91.68;100870.97;4977416;28;20136;-88
2023/06/03 01:11:00;;;;;;;5.15;3.97;;;;;;;18.92;90.76;100887.16;5009980;28;20399;-88
2023/06/03 01:13:37;;;;;;;5.97;4.30;;;;;;;18.88;91.69;100879.66;5009711;28;20034;-87
2023/06/03 01:16:04;;;;;;;7.80;5.07;;;;;;;18.78;90.45;100861.22;4978355;28;20104;-88
2023/06/03 01:18:33;;;;;;;4.93;4.07;;;;;;;18.77;90.74;100861.31;4993664;28;20123;-88
2023/06/03 01:21:00;;;;;;;8.07;4.28;;;;;;;18.94;90.33;100873.91;5009665;28;20056;-88
2023/06/03 01:23:28;;;;;;;19.13;4.45;;;;;;;18.88;91.10;100861.31;5009718;28;20415;-89
2023/06/03 01:25:56;;;;;;;8.80;5.07;;;;;;;18.93;91.86;100877.50;4993886;28;20407;-88
2023/06/03 01:28:23;;;;;;;6.90;4.50;;;;;;;18.97;92.79;100876.28;4993465;28;20026;-87
2023/06/03 01:30:49;;;;;;;6.93;3.92;;;;;;;19.00;92.04;100878.69;4993091;28;20116;-88
2023/06/03 01:33:15;;;;;;;5.65;4.28;;;;;;;19.00;90.19;100873.44;4993117;28;20034;-88
2023/06/03 01:35:41;;;;;;;10.10;5.60;;;;;;;19.07;91.05;100869.34;4993033;28;20030;-89
2023/06/03 01:38:06;;;;;;;8.40;4.55;;;;;;;19.15;90.99;100877.44;4993322;28;20034;-89
2023/06/03 01:40:32;;;;;;;5.40;4.22;;;;;;;19.00;93.02;100870.81;4976982;28;20080;-88
2023/06/03 01:42:57;;;;;;;7.05;4.35;;;;;;;19.09;93.24;100877.94;4992923;28;20037;-88
2023/06/03 01:45:23;;;;;;;5.75;4.70;;;;;;;19.11;92.46;100864.69;4993426;28;20026;-90
2023/06/03 01:47:48;;;;;;;7.10;4.57;;;;;;;19.12;92.83;100888.16;4993158;28;20491;-90
2023/06/03 01:50:16;;;;;;;6.63;4.68;;;;;;;19.09;93.52;100877.94;5009542;28;20084;-87
2023/06/03 01:52:43;;;;;;;5.70;4.47;;;;;;;19.09;93.71;100856.13;4977110;28;20168;-89
2023/06/03 01:55:09;;;;;;;5.25;4.28;;;;;;;19.16;93.74;100873.84;5008970;28;20396;-89
2023/06/03 01:57:35;;;;;;;7.18;4.97;;;;;;;19.16;93.98;100880.88;5009383;28;20045;-88
2023/06/03 02:00:06;;;;;;;6.07;4.10;;;;;;;19.22;93.84;100880.41;5010507;28;20037;-88
2023/06/03 02:02:31;;;;;;;7.90;5.45;;;;;;;19.11;93.57;100873.41;5009150;28;20154;-89
2023/06/03 02:04:57;;;;;;;7.32;5.63;;;;;;;19.20;93.88;100880.53;4976825;28;20125;-90
2023/06/03 02:07:25;;;;;;;7.18;4.93;;;;;;;19.22;93.32;100879.56;5013151;28;20511;-88
2023/06/03 02:09:51;;;;;;;7.43;5.60;;;;;;;19.19;93.12;100888.53;4981105;28;20029;-88
2023/06/03 02:12:17;;;;;;;7.85;5.28;;;;;;;19.27;93.39;100877.38;4997013;28;20041;-88
2023/06/03 02:14:42;;;;;;;7.93;5.60;;;;;;;19.28;93.01;100872.03;4996361;28;20479;-89
2023/06/03 02:17:08;;;;;;;6.25;4.68;;;;;;;19.07;93.12;100848.38;4996494;28;20034;-89
2023/06/03 02:19:34;;;;;;;6.22;5.00;;;;;;;19.20;92.86;100869.19;5013938;28;20103;-88
2023/06/03 02:22:00;;;;;;;7.55;4.90;;;;;;;19.39;93.40;100884.28;4996510;28;20061;-87
2023/06/03 02:24:28;;;;;;;6.53;5.60;;;;;;;19.40;93.73;100886.78;5012730;28;20068;-88
2023/06/03 02:26:54;;;;;;;6.40;4.70;;;;;;;19.40;93.30;100881.53;4996644;28;20058;-88
2023/06/03 02:29:22;;;;;;;6.53;4.88;;;;;;;19.41;93.00;100877.94;4996022;28;20084;-90
2023/06/03 02:31:47;;;;;;;7.13;5.38;;;;;;;19.49;92.63;100887.81;4996127;28;20117;-88
2023/06/03 02:34:13;;;;;;;6.40;4.55;;;;;;;19.45;92.09;100884.59;4996209;28;20108;-89
2023/06/03 02:36:38;;;;;;;6.65;5.15;;;;;;;19.31;92.76;100874.41;5012103;28;20033;-90
2023/06/03 02:39:04;;;;;;;10.93;5.68;;;;;;;19.31;92.30;100887.53;5012370;28;20030;-88
2023/06/03 02:41:30;;;;;;;6.97;5.00;;;;;;;19.31;93.02;100884.06;5013759;28;20033;-88
2023/06/03 02:43:56;;;;;;;7.65;5.03;;;;;;;19.34;93.46;100881.19;4995980;28;20030;-89
2023/06/03 02:46:21;;;;;;;7.78;5.35;;;;;;;19.32;93.24;100894.44;4995494;28;20076;-89
2023/06/03 02:48:47;;;;;;;7.80;5.25;;;;;;;19.27;93.46;100882.63;5012388;28;20491;-88
2023/06/03 02:51:12;;;;;;;6.97;4.63;;;;;;;19.33;93.03;100884.75;5012160;28;20029;-88
2023/06/03 02:53:38;;;;;;;7.05;5.07;;;;;;;19.33;92.84;100879.53;5013279;28;20084;-89
2023/06/03 02:56:03;;;;;;;8.10;5.05;;;;;;;19.36;92.21;100895.84;4995550;28;20033;-89
2023/06/03 02:58:28;;;;;;;6.85;4.97;;;;;;;19.24;92.48;100896.84;5012111;28;20030;-88
2023/06/03 03:00:54;;;;;;;8.40;5.55;;;;;;;19.20;92.40;100901.50;5012598;28;20030;-88
2023/06/03 03:03:20;;;;;;;7.40;4.95;;;;;;;19.05;92.64;100871.25;5011764;28;20088;-88
2023/06/03 03:05:46;;;;;;;6.20;4.70;;;;;;;19.19;92.84;100896.38;4995524;28;20735;-89
2023/06/03 03:08:11;;;;;;;7.45;5.68;;;;;;;18.93;93.58;100856.53;4995614;28;20488;-88
2023/06/03 03:10:37;;;;;;;7.53;5.28;;;;;;;19.25;93.38;100903.75;5012971;28;20028;-88
2023/06/03 03:13:02;;;;;;;8.98;5.50;;;;;;;19.20;93.21;100903.28;5012871;28;20400;-90
2023/06/03 03:15:28;;;;;;;9.52;4.82;;;;;;;19.25;93.55;100892.41;4994725;28;20087;-88
2023/06/03 03:17:53;;;;;;;7.68;5.53;;;;;;;19.31;93.27;100902.44;5010366;28;20030;-88
2023/06/03 03:20:18;;;;;;;7.97;5.20;;;;;;;19.31;93.15;100910.28;5012940;28;20034;-87
2023/06/03 03:22:44;;;;;;;7.07;5.50;;;;;;;19.31;92.79;100908.50;5011161;28;20034;-87
2023/06/03 03:25:12;;;;;;;8.13;5.82;;;;;;;19.17;92.79;100890.41;5011380;28;20040;-89
2023/06/03 03:27:38;;;;;;;8.13;5.82;;;;;;;19.22;92.84;100904.00;4995054;28;20032;-89
2023/06/03 03:30:05;;;;;;;11.07;6.25;;;;;;;19.26;92.13;100899.31;5011020;28;20030;-88
2023/06/03 03:32:31;;;;;;;8.57;6.10;;;;;;;19.31;92.07;100907.66;4995039;28;20442;-89
2023/06/03 03:35:15;;;;;;;7.80;6.03;;;;;;;19.37;91.91;100905.41;5010958;28;20636;-89
2023/06/03 03:37:40;;;;;;;9.02;5.47;;;;;;;19.35;91.52;100914.31;5010933;28;20065;-88
2023/06/03 03:40:17;;;;;;;7.70;5.07;;;;;;;19.36;91.78;100916.81;4978617;28;20057;-88
2023/06/03 03:42:52;;;;;;;6.43;5.00;;;;;;;19.29;91.23;100920.91;5010856;28;20029;-88
2023/06/03 03:45:18;;;;;;;6.75;5.32;;;;;;;19.30;90.99;100919.13;4995374;28;20034;-89
2023/06/03 03:47:45;;;;;;;6.43;4.97;;;;;;;19.26;91.45;100922.94;5011204;28;20419;-88
2023/06/03 03:50:18;;;;;;;7.93;5.20;;;;;;;19.20;91.68;100906.75;4994751;28;20069;-88
2023/06/03 03:52:43;;;;;;;6.90;4.95;;;;;;;19.09;92.15;100891.06;4994961;28;20034;-89
2023/06/03 03:55:09;;;;;;;10.13;6.07;;;;;;;19.28;91.83;100921.88;4994473;28;20045;-89
2023/06/03 03:57:36;;;;;;;9.80;6.00;;;;;;;19.26;91.58;100921.16;4994435;28;20041;-90
2023/06/03 04:00:06;;;;;;;13.50;6.20;;;;;;;19.24;91.05;100919.59;4994394;28;20026;-89
2023/06/03 04:02:33;;;;;;;7.68;5.18;;;;;;;19.22;91.58;100916.28;4995301;28;20033;-88
2023/06/03 04:05:00;;;;;;;7.55;4.85;;;;;;;19.27;91.16;100932.47;4994331;28;20049;-89
2023/06/03 04:07:26;;;;;;;8.40;6.03;;;;;;;19.11;90.87;100912.72;5010543;28;20029;-89
2023/06/03 04:09:51;;;;;;;9.95;6.30;;;;;;;19.17;90.80;100933.22;5010692;28;20118;-88
2023/06/03 04:12:29;;;;;;;7.10;5.50;;;;;;;19.26;91.54;100936.88;5012076;28;20036;-88
2023/06/03 04:14:57;;;;;;;10.80;6.82;;;;;;;19.10;90.93;100916.31;4993838;28;20021;-88
2023/06/03 04:17:25;;;;;;;10.38;6.43;;;;;;;19.08;91.17;100913.00;4994502;28;20097;-88
2023/06/03 04:19:51;;;;;;;8.88;5.75;;;;;;;19.17;90.95;100938.47;5010452;28;20479;-89
2023/06/03 04:22:21;;;;;;;8.15;6.15;;;;;;;19.19;91.53;100941.81;4977748;28;20116;-88
2023/06/03 04:24:48;;;;;;;10.15;6.22;;;;;;;19.17;91.73;100940.25;4994460;28;20079;-88
2023/06/03 04:27:14;;;;;;;15.18;6.13;;;;;;;19.10;91.86;100925.97;4994402;28;20048;-88
2023/06/03 04:29:39;;;;;;;13.02;7.03;;;;;;;19.15;91.95;100945.63;4993457;28;20025;-89
2023/06/03 04:32:05;;;;;;;10.32;6.03;;;;;;;19.13;92.31;100941.44;4993822;28;20029;-89
2023/06/03 04:34:30;;;;;;;8.98;6.47;;;;;;;19.08;92.75;100939.22;4993895;28;20067;-88
2023/06/03 04:36:56;;;;;;;10.95;7.47;;;;;;;19.09;92.65;100937.41;4993958;28;20029;-88
2023/06/03 04:39:21;;;;;;;12.98;6.70;;;;;;;19.13;92.66;100937.03;4993870;28;20034;-88
2023/06/03 04:41:47;;;;;;;7.88;6.15;;;;;;;19.16;92.72;100939.41;5010177;28;20041;-88
2023/06/03 04:44:13;;;;;;;7.65;5.22;;;;;;;19.24;92.48;100949.28;4993531;28;20563;-90
2023/06/03 04:46:40;;;;;;;7.07;5.15;;;;;;;19.24;92.04;100949.28;4993836;28;20044;-89
2023/06/03 04:49:08;;;;;;;7.35;5.10;;;;;;;19.20;91.94;100938.22;4993971;28;20141;-90
2023/06/03 04:51:33;;;;;;;7.57;5.13;;;;;;;19.15;92.05;100934.28;4993822;28;20075;-87
2023/06/03 04:53:59;;;;;;;7.32;5.35;;;;;;;19.19;92.56;100940.97;4993417;28;20025;-88
2023/06/03 04:56:25;;;;;;;7.30;5.43;;;;;;;19.10;92.90;100931.22;4993676;28;20530;-89
2023/06/03 04:58:55;;;;;;;9.05;6.22;;;;;;;19.26;92.00;100942.13;5009989;28;20033;-88
2023/06/03 05:01:24;;;;;;;10.93;6.22;;;;;;;19.28;92.33;100957.78;5010283;28;20048;-89
2023/06/03 05:03:53;;;;;;;12.02;6.90;;;;;;;19.32;91.89;100956.56;4993440;28;20542;-88
2023/06/03 05:06:19;;;;;;;12.50;7.88;;;;;;;19.31;92.28;100949.66;4993698;28;20053;-90
2023/06/03 05:08:48;;;;;;;9.68;6.43;;;;;;;19.32;91.75;100946.06;4977303;28;20476;-89
2023/06/03 05:11:17;;;;;;;7.40;5.60;;;;;;;19.40;91.00;100964.66;4993575;28;20029;-88
2023/06/03 05:13:42;;;;;;;9.32;6.35;;;;;;;19.39;89.57;100957.72;5010168;28;20034;-89
2023/06/03 05:16:08;;;;;;;8.35;6.10;;;;;;;19.43;89.67;100964.38;4977288;28;20033;-90
2023/06/03 05:18:35;;;;;;;16.35;7.90;;;;;;;19.46;89.16;100954.47;4993657;28;20384;-87
2023/06/03 05:21:01;;;;;;;13.32;8.48;;;;;;;19.43;89.78;100946.03;4993656;28;20022;-89
2023/06/03 05:23:26;;;;;;;13.98;9.18;;;;;;;19.39;88.69;100944.63;5009984;28;20501;-88
2023/06/03 05:25:52;;;;;;;12.02;7.78;;;;;;;19.50;88.90;100965.56;5009693;28;20523;-88
2023/06/03 05:28:17;;;;;;;14.77;8.82;;;;;;;19.49;88.98;100963.91;5009454;28;20484;-88
2023/06/03 05:30:43;;;;;;;10.07;7.45;;;;;;;19.47;88.22;100965.81;4993384;28;20053;-89
2023/06/03 05:33:08;;;;;;;8.80;6.80;;;;;;;19.39;89.44;100955.09;5009529;28;20515;-88
2023/06/03 05:35:33;;;;;;;9.10;5.65;;;;;;;19.47;89.42;100968.44;5010655;28;20034;-88
2023/06/03 05:37:59;;;;;;;7.53;5.53;;;;;;;19.49;89.79;100969.16;5010751;28;20038;-88
2023/06/03 05:40:24;;;;;;;8.10;5.40;;;;;;;19.47;89.79;100981.56;5010245;28;20033;-88
2023/06/03 05:42:50;;;;;;;8.30;5.45;;;;;;;19.43;90.23;100980.13;4996965;28;20034;-88
2023/06/03 05:45:15;;;;;;;6.38;4.63;;;;;;;19.52;90.37;100983.81;5013137;28;20045;-90
2023/06/03 05:47:41;;;;;;;5.63;4.10;;;;;;;19.55;90.11;100987.00;5014174;28;20084;-88
2023/06/03 05:50:07;;;;;;;13.75;5.35;;;;;;;19.51;89.88;100975.09;5012984;28;20499;-88
2023/06/03 05:52:32;;;;;;;8.95;5.88;;;;;;;19.59;90.77;100982.41;5012799;28;20060;-89
2023/06/03 05:54:58;;;;;;;10.20;4.97;;;;;;;19.64;91.09;100983.66;4996324;28;20034;-89
2023/06/03 05:57:23;;;;;;;12.13;5.07;;;;;;;19.63;90.66;100968.88;4996737;28;20029;-88
2023/06/03 05:59:50;;;;;;;11.35;4.97;;;;;;;19.76;89.76;100987.94;5013266;28;20070;-90
2023/06/03 06:02:18;;;;;;;9.13;6.00;;;;;;;19.76;89.22;100987.94;4997161;28;20392;-89
2023/06/03 06:04:43;;;;;;;8.38;5.60;;;;;;;19.88;89.52;100999.22;5012859;28;20442;-88
2023/06/03 06:07:08;;;;;;;10.38;5.43;;;;;;;19.98;87.30;100983.56;4996435;28;20026;-88
2023/06/03 06:09:34;;;;;;;7.97;5.60;;;;;;;20.05;85.65;100992.56;4996237;28;20468;-88
2023/06/03 06:11:59;;;;;;;7.22;4.95;;;;;;;19.99;86.60;100979.97;4980214;28;20565;-89
2023/06/03 06:14:26;;;;;;;9.15;5.20;;;;;;;20.15;85.54;100990.84;4998392;28;20025;-88
2023/06/03 06:16:52;;;;;;;8.55;5.07;;;;;;;20.20;84.76;100996.56;5012504;28;20495;-89
2023/06/03 06:19:17;;;;;;;8.70;5.20;;;;;;;20.12;85.47;100977.13;4996592;28;20113;-89
2023/06/03 06:21:43;;;;;;;9.13;5.65;;;;;;;20.26;87.63;100988.19;4996093;28;20516;-88
2023/06/03 06:24:08;;;;;;;11.00;5.47;;;;;;;20.23;85.57;100979.69;4979830;28;20018;-88
2023/06/03 06:26:34;;;;;;;6.40;4.43;;;;;;;20.18;83.35;100972.22;4995870;28;20518;-89
2023/06/03 06:29:00;;;;;;;6.15;4.35;;;;;;;20.23;85.88;100995.47;5012225;28;20496;-89
2023/06/03 06:31:26;;;;;;;6.20;4.75;;;;;;;20.29;86.23;100990.53;4996230;28;20117;-88
2023/06/03 06:33:51;;;;;;;9.43;4.53;;;;;;;20.16;85.27;100974.16;5012298;28;20545;-87
2023/06/03 06:36:39;;;;;;;8.40;5.32;;;;;;;20.36;85.86;100995.28;5011982;28;20030;-87
2023/06/03 06:39:05;;;;;;;7.47;4.15;;;;;;;20.34;86.67;100987.50;5011830;28;20030;-88
2023/06/03 06:41:31;;;;;;;8.55;4.15;;;;;;;20.25;86.25;100989.09;4979650;28;20053;-88
2023/06/03 06:43:56;;;;;;;6.47;4.63;;;;;;;20.28;87.40;100988.88;4979741;28;20025;-88
2023/06/03 06:46:22;;;;;;;11.85;4.15;;;;;;;20.07;83.55;100971.44;5013329;28;20036;-87
2023/06/03 06:48:47;;;;;;;5.50;3.55;;;;;;;20.13;85.22;100992.75;4979578;28;20044;-88
2023/06/03 06:51:14;;;;;;;7.75;4.55;;;;;;;20.13;86.14;100990.13;4995731;28;20034;-87
2023/06/03 06:53:47;;;;;;;6.55;4.32;;;;;;;20.10;85.75;100998.28;4995521;28;20030;-87
2023/06/03 06:56:13;;;;;;;6.28;4.03;;;;;;;20.03;84.40;100992.69;5012035;28;20038;-88
2023/06/03 06:58:39;;;;;;;8.65;5.20;;;;;;;20.20;85.91;101006.22;4995505;28;20030;-88
2023/06/03 07:01:05;;;;;;;8.68;4.85;;;;;;;20.21;85.19;101003.47;4995655;28;20072;-88
2023/06/03 07:03:31;;;;;;;8.93;4.57;;;;;;;20.16;85.11;100991.69;4979110;28;20139;-89
2023/06/03 07:05:56;;;;;;;7.70;5.50;;;;;;;20.16;85.43;100989.91;4995336;28;20503;-89
2023/06/03 07:08:22;;;;;;;6.55;4.32;;;;;;;20.32;85.84;101016.53;5011414;28;20022;-87
2023/06/03 07:10:48;;;;;;;5.95;4.63;;;;;;;20.28;85.06;100999.38;5011746;28;20491;-89
2023/06/03 07:13:15;;;;;;;6.95;4.22;;;;;;;20.18;85.07;100980.09;4995313;28;20022;-88
2023/06/03 07:15:40;;;;;;;6.78;4.15;;;;;;;20.28;85.59;101009.06;5011563;28;20029;-87
2023/06/03 07:18:06;;;;;;;9.60;4.60;;;;;;;20.36;84.87;101021.56;5011868;28;20546;-88
2023/06/03 07:20:36;;;;;;;4.28;3.55;;;;;;;20.28;85.32;101004.63;4995549;28;20108;-89
2023/06/03 07:23:01;;;;;;;6.35;3.42;;;;;;;20.29;84.96;101013.34;5011099;28;20034;-89
2023/06/03 07:25:33;;;;;;;7.28;3.90;;;;;;;20.28;86.53;101004.63;4995112;28;20478;-88
2023/06/03 07:27:58;;;;;;;4.07;3.08;;;;;;;20.30;84.38;101023.72;5012455;28;20084;-87
2023/06/03 07:30:24;;;;;;;10.13;4.30;;;;;;;20.46;84.57;101027.75;4994770;28;20034;-88
2023/06/03 07:32:52;;;;;;;6.70;4.20;;;;;;;20.28;84.20;101004.63;4995323;28;20034;-88
2023/06/03 07:35:18;;;;;;;5.50;4.25;;;;;;;20.23;85.31;101001.53;4994994;28;20060;-88
2023/06/03 07:37:44;;;;;;;9.85;4.40;;;;;;;20.38;85.00;101011.75;5010733;28;20072;-88
2023/06/03 07:40:13;;;;;;;6.10;3.83;;;;;;;20.56;84.38;101036.53;4994918;28;20022;-88
2023/06/03 07:42:39;;;;;;;6.97;4.40;;;;;;;20.59;83.68;101023.09;4994622;28;20025;-88
2023/06/03 07:45:05;;;;;;;5.32;3.70;;;;;;;20.70;83.82;101030.09;5011911;28;20034;-88
2023/06/03 07:47:30;;;;;;;8.10;4.53;;;;;;;20.78;83.05;101036.34;4978280;28;20030;-88
2023/06/03 07:49:58;;;;;;;6.60;4.28;;;;;;;20.82;83.05;101035.13;4994333;28;20037;-89
2023/06/03 07:52:24;;;;;;;4.60;3.88;;;;;;;20.95;83.02;101049.88;5010649;28;20032;-88
2023/06/03 07:54:49;;;;;;;7.82;4.00;;;;;;;21.00;83.39;101042.41;5011924;28;20033;-88
2023/06/03 07:57:15;;;;;;;6.30;3.80;;;;;;;21.04;80.76;101042.03;4994451;28;20029;-88
2023/06/03 07:59:53;;;;;;;5.68;3.88;;;;;;;21.05;82.29;101021.81;5010848;28;20773;-87
2023/06/03 08:02:19;;;;;;;5.65;3.85;;;;;;;21.13;79.12;101037.72;4994158;28;20050;-88
2023/06/03 08:04:45;;;;;;;6.32;3.95;;;;;;;21.27;79.19;101050.56;4993580;28;20520;-87
2023/06/03 08:07:10;;;;;;;5.47;4.18;;;;;;;21.35;78.38;101049.91;5010390;28;20034;-88
2023/06/03 08:09:36;;;;;;;6.13;4.45;;;;;;;21.43;78.03;101050.03;4994296;28;20034;-89
2023/06/03 08:12:06;;;;;;;8.88;4.80;;;;;;;21.50;78.70;101051.19;4994231;28;20053;-89
2023/06/03 08:14:33;;;;;;;6.40;4.32;;;;;;;21.63;79.23;101057.03;4994481;28;20034;-88
2023/06/03 08:17:09;;;;;;;7.80;4.80;;;;;;;21.68;79.33;101064.53;5010193;28;20597;-90
2023/06/03 08:19:35;;;;;;;8.07;5.22;;;;;;;21.64;77.22;101052.59;4977591;28;20033;-88
2023/06/03 08:22:00;;;;;;;6.75;4.50;;;;;;;21.76;77.58;101067.31;4993969;28;20029;-87
2023/06/03 08:24:26;;;;;;;7.07;4.60;;;;;;;21.87;77.29;101067.19;4994023;28;20033;-88
2023/06/03 08:26:51;;;;;;;5.50;4.10;;;;;;;21.96;77.67;101071.63;5010297;28;20502;-87
2023/06/03 08:29:16;;;;;;;6.05;4.05;;;;;;;21.88;77.77;101041.66;4993810;28;20084;-88
2023/06/03 08:31:42;;;;;;;7.88;4.15;;;;;;;22.07;77.38;101069.84;5010086;28;20389;-89
2023/06/03 08:34:07;;;;;;;6.70;4.25;;;;;;;22.13;75.83;101064.03;4977249;28;20092;-88
2023/06/03 08:36:33;;;;;;;8.55;4.60;;;;;;;22.20;74.23;101068.59;5011019;28;20044;-88
2023/06/03 08:38:58;;;;;;;5.90;4.45;;;;;;;22.18;73.80;101074.97;4993616;28;20026;-89
2023/06/03 08:41:39;;;;;;;5.40;3.67;;;;;;;22.23;72.47;101070.97;4993482;28;20037;-88
2023/06/03 08:44:12;;;;;;;6.32;4.03;;;;;;;22.24;70.68;101079.72;5010106;28;20125;-87
2023/06/03 08:47:11;;;;;;;6.53;3.97;;;;;;;22.19;71.15;101074.00;4993819;28;20053;-89
2023/06/03 08:49:41;;;;;;;5.60;3.90;;;;;;;22.23;73.90;101076.25;5004238;28;20051;-88
2023/06/03 08:52:08;;;;;;;7.65;3.67;;;;;;;22.30;72.27;101077.31;4977455;28;20038;-88
2023/06/03 08:54:34;;;;;;;4.68;3.30;;;;;;;22.30;72.90;101073.84;4993663;28;20025;-88
2023/06/03 08:57:06;;;;;;;6.35;3.75;;;;;;;22.40;73.28;101082.59;4993599;28;20030;-89
2023/06/03 08:59:31;;;;;;;4.35;3.35;;;;;;;22.47;72.38;101088.97;4993678;28;20037;-88
2023/06/03 09:01:57;;;;;;;5.25;3.75;;;;;;;22.52;71.73;101081.50;4993072;28;20030;-88
2023/06/03 09:04:22;;;;;;;9.63;3.25;;;;;;;22.60;70.71;101078.13;4993002;28;20107;-89
2023/06/03 09:06:48;;;;;;;5.32;3.67;;;;;;;22.75;69.49;101081.16;4993412;28;20510;-89
2023/06/03 09:09:14;;;;;;;4.28;3.40;;;;;;;22.80;70.58;101092.09;4993079;28;20425;-88
2023/06/03 09:11:41;;;;;;;6.68;4.28;;;;;;;22.83;70.83;101083.91;4993376;28;20105;-88
2023/06/03 09:14:07;;;;;;;7.63;4.35;;;;;;;22.93;69.33;101074.19;4993876;28;20022;-88
2023/06/03 09:16:32;;;;;;;11.50;5.13;;;;;;;23.07;70.17;101081.63;4997257;28;20413;-88
2023/06/03 09:18:58;;;;;;;9.57;4.03;;;;;;;23.16;68.91;101086.03;4997202;28;20101;-88
2023/06/03 09:21:23;;;;;;;4.85;3.80;;;;;;;23.26;68.54;101086.00;4997226;28;20030;-88
2023/06/03 09:23:51;;;;;;;9.88;4.30;;;;;;;23.35;68.21;101081.66;4997105;28;20029;-89
2023/06/03 09:26:17;;;;;;;6.47;4.22;;;;;;;23.40;68.03;101071.47;5015067;28;20061;-88
2023/06/03 09:28:42;;;;;;;11.10;4.32;;;;;;;23.44;68.60;101063.13;4997034;28;20065;-88
2023/06/03 09:31:08;;;;;;;4.95;3.53;;;;;;;23.59;67.70;101068.75;4997177;28;20026;-88
2023/06/03 09:33:33;;;;;;;4.93;3.47;;;;;;;23.65;67.21;101073.44;5013059;28;20026;-87
2023/06/03 09:36:06;;;;;;;5.68;3.58;;;;;;;23.83;65.53;101077.94;4996596;28;20033;-87
2023/06/03 09:38:50;;;;;;;7.38;4.05;;;;;;;23.86;64.94;101078.44;5014428;28;20052;-88
2023/06/03 09:41:17;;;;;;;4.32;2.92;;;;;;;23.95;64.50;101076.72;4997000;28;20112;-88
2023/06/03 09:43:52;;;;;;;8.55;3.58;;;;;;;24.05;63.88;101093.31;4996714;28;20412;-87
2023/06/03 09:46:18;;;;;;;5.10;3.95;;;;;;;24.14;64.03;101081.03;5014417;28;20038;-89
2023/06/03 09:48:44;;;;;;;6.30;3.45;;;;;;;23.97;62.59;101070.28;4996425;28;20113;-88
2023/06/03 09:51:09;;;;;;;5.50;3.58;;;;;;;24.18;63.19;101093.75;4996861;28;20105;-88
2023/06/03 09:53:35;;;;;;;4.30;3.47;;;;;;;24.39;63.50;101092.69;5014275;28;20033;-88
2023/06/03 09:56:20;;;;;;;4.57;3.60;;;;;;;24.68;62.57;101090.56;5012724;28;20141;-88
2023/06/03 09:58:46;;;;;;;4.25;3.10;;;;;;;24.87;62.15;101098.28;4996852;28;20585;-88
2023/06/03 10:01:11;;;;;;;5.15;3.67;;;;;;;24.91;60.60;101095.34;4996338;28;20030;-88
2023/06/03 10:03:37;;;;;;;4.47;3.05;;;;;;;25.08;60.36;101097.13;5014360;28;20500;-88
2023/06/03 10:06:18;;;;;;;4.20;3.30;;;;;;;25.20;60.33;101095.03;5012631;28;20034;-89
2023/06/03 10:08:43;;;;;;;4.85;3.67;;;;;;;25.23;60.49;101097.34;4996947;28;20022;-89
2023/06/03 10:11:09;;;;;;;6.55;3.97;;;;;;;25.26;59.84;101089.91;4996535;28;20032;-88
2023/06/03 10:13:34;;;;;;;7.97;3.30;;;;;;;25.33;60.07;101075.03;4996509;28;20034;-89
2023/06/03 10:16:02;;;;;;;6.15;3.97;;;;;;;25.57;60.18;101090.19;4995961;28;20411;-89
2023/06/03 10:18:35;;;;;;;5.90;3.78;;;;;;;25.81;59.85;101083.31;4996605;28;20026;-88
2023/06/03 10:21:05;;;;;;;6.53;3.83;;;;;;;25.93;58.85;101077.53;4996554;28;20022;-88
2023/06/03 10:23:30;;;;;;;5.47;3.53;;;;;;;26.05;57.59;101074.56;4996233;28;20033;-89
2023/06/03 10:25:56;;;;;;;4.30;3.65;;;;;;;26.01;57.57;101080.19;4995339;28;20557;-88
2023/06/03 10:28:21;;;;;;;4.53;3.80;;;;;;;25.93;58.58;101056.31;4996129;28;20479;-89
2023/06/03 10:30:47;;;;;;;4.47;3.47;;;;;;;26.09;57.19;101086.50;4995698;28;20413;-89
2023/06/03 10:33:12;;;;;;;4.88;3.70;;;;;;;25.90;57.74;101069.91;4995631;28;20030;-88
2023/06/03 10:35:38;;;;;;;4.95;3.97;;;;;;;26.00;58.29;101075.88;4995605;28;20034;-88
2023/06/03 10:38:05;;;;;;;5.85;4.18;;;;;;;25.99;57.50;101068.94;4995656;28;20026;-90
2023/06/03 10:40:30;;;;;;;5.07;3.78;;;;;;;26.12;57.79;101070.25;4995732;28;20430;-88
2023/06/03 10:42:56;;;;;;;5.30;3.80;;;;;;;26.13;57.00;101064.78;4995715;28;20030;-88
2023/06/03 10:45:22;;;;;;;5.38;3.80;;;;;;;26.17;57.26;101052.06;5011818;28;20032;-89
2023/06/03 10:47:49;;;;;;;5.90;3.70;;;;;;;26.34;57.60;101052.84;4995553;28;20037;-89
2023/06/03 10:50:29;;;;;;;5.40;3.47;;;;;;;26.37;56.78;101058.69;4995841;28;20029;-88
2023/06/03 10:53:09;;;;;;;6.22;4.82;;;;;;;26.40;56.84;101058.34;5011717;28;20025;-89
2023/06/03 10:55:36;;;;;;;6.32;4.20;;;;;;;26.34;56.53;101058.97;5013014;28;20080;-88
2023/06/03 10:58:05;;;;;;;6.13;4.18;;;;;;;26.25;55.80;101038.75;5011763;28;20125;-88
2023/06/03 11:00:52;;;;;;;5.60;3.80;;;;;;;26.61;56.21;101057.00;4979267;28;20518;-88
2023/06/03 11:03:21;;;;;;;5.72;3.60;;;;;;;26.77;55.40;101046.34;5014459;28;20558;-88
2023/06/03 11:05:49;;;;;;;5.47;3.60;;;;;;;26.80;54.83;101053.97;4981730;28;20034;-89
2023/06/03 11:08:53;;;;;;;4.82;3.53;;;;;;;26.87;55.81;101058.41;4997996;28;20068;-88
2023/06/03 11:11:40;;;;;;;4.40;3.05;;;;;;;26.81;53.67;101055.63;5012751;28;20022;-89
2023/06/03 11:14:29;;;;;;;5.28;3.78;;;;;;;26.77;54.80;101059.63;5011149;28;20099;-88
2023/06/03 11:16:58;;;;;;;4.80;3.20;;;;;;;26.75;55.26;101051.00;5010988;28;20033;-88
2023/06/03 11:19:36;;;;;;;4.45;3.58;;;;;;;26.67;54.41;101032.44;5012605;28;20136;-89
2023/06/03 11:22:07;;;;;;;4.97;3.40;;;;;;;26.71;55.34;101039.06;4996044;28;20022;-89
2023/06/03 11:24:41;;;;;;;7.80;3.80;;;;;;;26.59;55.93;101049.22;4995527;28;20030;-88